Time;durP1;ratioP1;P1;durP2;ratioP2;P2;SDS_P1;SDS_P2;PMS_P1;PMS_P2;Temp;Humidity;BMP_temperature;BMP_pressure;BME280_temperature;BME280_humidity;BME280_pressure;Samples;Min_cycle;Max_cycle;Signal;HPM_P1;HPM_P2
2019/11/17 00:00:49;;;;;;;16.7;14.9;;;;;;;;;;;;;
2019/11/17 00:03:11;;;;;;;19.3;16.2;;;;;;;;;;;;;
2019/11/17 00:05:36;;;;;;;18.5;15.8;;;;;;;;;;;;;
2019/11/17 00:08:08;;;;;;;18.7;16.6;;;;;;;;;;;;;
2019/11/17 00:10:37;;;;;;;18.6;15.9;;;;;;;;;;;;;
2019/11/17 00:12:59;;;;;;;18.6;16.6;;;;;;;;;;;;;
2019/11/17 00:15:22;;;;;;;19.3;16.5;;;;;;;;;;;;;
2019/11/17 00:17:53;;;;;;;20.3;17;;;;;;;;;;;;;
2019/11/17 00:20:16;;;;;;;19.6;16.6;;;;;;;;;;;;;
2019/11/17 00:23:23;;;;;;;21.4;18.1;;;;;;;;;;;;;
2019/11/17 00:28:00;;;;;;;20.1;16.7;;;;;;;;;;;;;
2019/11/17 00:30:31;;;;;;;20;17.3;;;;;;;;;;;;;
2019/11/17 00:32:53;;;;;;;20;17.2;;;;;;;;;;;;;
2019/11/17 00:35:17;;;;;;;20.8;17.4;;;;;;;;;;;;;
2019/11/17 00:37:49;;;;;;;21.3;17.5;;;;;;;;;;;;;
2019/11/17 00:40:14;;;;;;;22;18.1;;;;;;;;;;;;;
2019/11/17 00:42:43;;;;;;;20.9;17.2;;;;;;;;;;;;;
2019/11/17 00:45:05;;;;;;;22.6;17.8;;;;;;;;;;;;;
2019/11/17 00:47:31;;;;;;;21.3;18;;;;;;;;;;;;;
2019/11/17 00:49:58;;;;;;;22.8;18.3;;;;;;;;;;;;;
2019/11/17 00:52:23;;;;;;;20.4;17.2;;;;;;;;;;;;;
2019/11/17 00:54:48;;;;;;;20.2;16.7;;;;;;;;;;;;;
2019/11/17 00:57:13;;;;;;;20.5;17.5;;;;;;;;;;;;;
2019/11/17 00:59:41;;;;;;;21.8;17.7;;;;;;;;;;;;;
2019/11/17 01:02:04;;;;;;;21.3;16.9;;;;;;;;;;;;;
2019/11/17 01:04:30;;;;;;;21.1;17.4;;;;;;;;;;;;;
2019/11/17 01:06:54;;;;;;;19.4;16.2;;;;;;;;;;;;;
2019/11/17 01:09:21;;;;;;;19.3;16.4;;;;;;;;;;;;;
2019/11/17 01:11:46;;;;;;;21.9;18;;;;;;;;;;;;;
2019/11/17 01:14:10;;;;;;;21;16.7;;;;;;;;;;;;;
2019/11/17 01:16:35;;;;;;;20.5;17.2;;;;;;;;;;;;;
2019/11/17 01:19:03;;;;;;;23.4;18.6;;;;;;;;;;;;;
2019/11/17 01:21:25;;;;;;;22.5;19.1;;;;;;;;;;;;;
2019/11/17 01:23:51;;;;;;;22.2;19;;;;;;;;;;;;;
2019/11/17 01:26:17;;;;;;;20.8;16.7;;;;;;;;;;;;;
2019/11/17 01:28:46;;;;;;;19.5;16.3;;;;;;;;;;;;;
2019/11/17 01:31:11;;;;;;;17.8;15.1;;;;;;;;;;;;;
2019/11/17 01:33:33;;;;;;;19.1;15.5;;;;;;;;;;;;;
2019/11/17 01:36:08;;;;;;;18;14.4;;;;;;;;;;;;;
2019/11/17 01:38:37;;;;;;;15;12.3;;;;;;;;;;;;;
2019/11/17 01:44:43;;;;;;;15.9;13.1;;;;;;;;;;;;;
2019/11/17 01:46:57;;;;;;;11.4;10.1;;;;;;;;;;;;;
2019/11/17 01:49:25;;;;;;;11.3;9.2;;;;;;;;;;;;;
2019/11/17 01:51:51;;;;;;;11.2;10;;;;;;;;;;;;;
2019/11/17 01:54:21;;;;;;;10.5;9.3;;;;;;;;;;;;;
2019/11/17 01:56:42;;;;;;;10;8.9;;;;;;;;;;;;;
2019/11/17 01:59:07;;;;;;;10.7;9.4;;;;;;;;;;;;;
2019/11/17 02:01:40;;;;;;;12.2;9.6;;;;;;;;;;;;;
2019/11/17 02:04:00;;;;;;;10;8.4;;;;;;;;;;;;;
2019/11/17 02:06:25;;;;;;;12;9.6;;;;;;;;;;;;;
2019/11/17 02:08:49;;;;;;;11.8;9.5;;;;;;;;;;;;;
2019/11/17 02:11:18;;;;;;;10.5;8.2;;;;;;;;;;;;;
2019/11/17 02:13:40;;;;;;;9.3;7.6;;;;;;;;;;;;;
2019/11/17 02:16:06;;;;;;;11.2;8.1;;;;;;;;;;;;;
2019/11/17 02:18:31;;;;;;;11.2;8.3;;;;;;;;;;;;;
2019/11/17 02:21:02;;;;;;;8.7;7.1;;;;;;;;;;;;;
2019/11/17 02:23:30;;;;;;;9.6;7;;;;;;;;;;;;;
2019/11/17 02:25:53;;;;;;;8.5;6.5;;;;;;;;;;;;;
2019/11/17 02:28:19;;;;;;;7.5;6.4;;;;;;;;;;;;;
2019/11/17 02:30:43;;;;;;;6.7;6;;;;;;;;;;;;;
2019/11/17 02:33:10;;;;;;;8;6.5;;;;;;;;;;;;;
2019/11/17 02:35:37;;;;;;;7.1;6.4;;;;;;;;;;;;;
2019/11/17 02:38:02;;;;;;;7.1;6.1;;;;;;;;;;;;;
2019/11/17 02:40:26;;;;;;;6.7;6;;;;;;;;;;;;;
2019/11/17 02:42:55;;;;;;;6.9;6.2;;;;;;;;;;;;;
2019/11/17 02:45:16;;;;;;;9.1;7;;;;;;;;;;;;;
2019/11/17 02:47:42;;;;;;;8.3;6.9;;;;;;;;;;;;;
2019/11/17 02:50:07;;;;;;;7.8;5.9;;;;;;;;;;;;;
2019/11/17 02:55:02;;;;;;;6.9;5.1;;;;;;;;;;;;;
2019/11/17 02:57:28;;;;;;;5;4.5;;;;;;;;;;;;;
2019/11/17 02:59:54;;;;;;;5.1;4.3;;;;;;;;;;;;;
2019/11/17 03:02:19;;;;;;;5.3;4.6;;;;;;;;;;;;;
2019/11/17 03:04:43;;;;;;;5.1;4.2;;;;;;;;;;;;;
2019/11/17 03:07:20;;;;;;;4.1;3.7;;;;;;;;;;;;;
2019/11/17 03:09:34;;;;;;;5.5;3.8;;;;;;;;;;;;;
2019/11/17 03:11:59;;;;;;;5;3.5;;;;;;;;;;;;;
2019/11/17 03:14:23;;;;;;;4;3.3;;;;;;;;;;;;;
2019/11/17 03:16:52;;;;;;;4.5;3.5;;;;;;;;;;;;;
2019/11/17 03:19:17;;;;;;;3.2;2.9;;;;;;;;;;;;;
2019/11/17 03:21:49;;;;;;;4;2.9;;;;;;;;;;;;;
2019/11/17 03:24:19;;;;;;;3.8;3.1;;;;;;;;;;;;;
2019/11/17 03:26:44;;;;;;;5.2;3.3;;;;;;;;;;;;;
2019/11/17 03:29:09;;;;;;;3.7;2.9;;;;;;;;;;;;;
2019/11/17 03:31:33;;;;;;;3.5;2.6;;;;;;;;;;;;;
2019/11/17 03:34:01;;;;;;;4.1;2.7;;;;;;;;;;;;;
2019/11/17 03:36:25;;;;;;;4.6;3.2;;;;;;;;;;;;;
2019/11/17 03:38:50;;;;;;;4.4;3.2;;;;;;;;;;;;;
2019/11/17 03:41:24;;;;;;;4.2;2.8;;;;;;;;;;;;;
2019/11/17 03:46:07;;;;;;;4;2.9;;;;;;;;;;;;;
2019/11/17 03:48:32;;;;;;;3.6;2.6;;;;;;;;;;;;;
2019/11/17 03:51:03;;;;;;;3.9;2.9;;;;;;;;;;;;;
2019/11/17 03:53:26;;;;;;;4.3;3.1;;;;;;;;;;;;;
2019/11/17 03:55:58;;;;;;;4.2;3.4;;;;;;;;;;;;;
2019/11/17 03:58:19;;;;;;;3.8;2.8;;;;;;;;;;;;;
2019/11/17 04:02:38;;;;;;;2.8;2.2;;;;;;;4.61;84.86426;928.3095;;;;
2019/11/17 04:05:04;;;;;;;3.5;2.7;;;;;;;4.56;85.50781;928.2589;;;;
2019/11/17 04:07:34;;;;;;;3.3;2.6;;;;;;;4.56;85.53027;928.1453;;;;
2019/11/17 04:10:10;;;;;;;3.2;2.6;;;;;;;4.52;85.00391;928.1566;;;;
2019/11/17 04:12:35;;;;;;;2.9;2.3;;;;;;;4.44;84.90918;928.0756;;;;
2019/11/17 04:15:01;;;;;;;3.4;2.6;;;;;;;4.35;85.4668;928.1268;;;;
2019/11/17 04:17:34;;;;;;;3.4;2.5;;;;;;;4.37;85.62793;928.2201;;;;
2019/11/17 04:20:08;;;;;;;2.4;2.2;;;;;;;4.41;85.11719;928.1256;;;;
2019/11/17 04:22:29;;;;;;;3.3;2.4;;;;;;;4.45;84.03223;928.0254;;;;
2019/11/17 04:24:47;;;;;;;3.2;2.3;;;;;;;;;;;;;
2019/11/17 04:27:14;;;;;;;3.1;2.5;;;;;;;;;;;;;
2019/11/17 04:29:40;;;;;;;3.9;2.6;;;;;;;;;;;;;
2019/11/17 04:32:11;;;;;;;4.7;2.8;;;;;;;;;;;;;
2019/11/17 04:34:31;;;;;;;5.7;2.9;;;;;;;;;;;;;
2019/11/17 04:36:57;;;;;;;7.6;4;;;;;;;;;;;;;
2019/11/17 04:39:23;;;;;;;37.2;18.1;;;;;;;;;;;;;
2019/11/17 04:41:47;;;;;;;42.6;20.5;;;;;;;;;;;;;
2019/11/17 04:44:14;;;;;;;20.3;9.4;;;;;;;;;;;;;
2019/11/17 04:46:39;;;;;;;14;7.4;;;;;;;;;;;;;
2019/11/17 04:49:01;;;;;;;12.4;7.1;;;;;;;;;;;;;
2019/11/17 04:51:32;;;;;;;9.6;5.4;;;;;;;;;;;;;
2019/11/17 04:53:52;;;;;;;6.8;4.2;;;;;;;;;;;;;
2019/11/17 04:56:18;;;;;;;6.6;3.9;;;;;;;;;;;;;
2019/11/17 04:58:42;;;;;;;6.6;4.5;;;;;;;;;;;;;
2019/11/17 05:01:10;;;;;;;5.1;3.2;;;;;;;;;;;;;
2019/11/17 05:03:32;;;;;;;3.4;2.4;;;;;;;;;;;;;
2019/11/17 05:06:10;;;;;;;2.8;2.4;;;;;;;;;;;;;
2019/11/17 05:08:23;;;;;;;2.8;2.3;;;;;;;;;;;;;
2019/11/17 05:10:54;;;;;;;2.9;2;;;;;;;;;;;;;
2019/11/17 05:13:14;;;;;;;1.9;1.6;;;;;;;;;;;;;
2019/11/17 05:15:47;;;;;;;2.9;1.6;;;;;;;;;;;;;
2019/11/17 05:18:14;;;;;;;2.4;1.9;;;;;;;;;;;;;
2019/11/17 05:20:42;;;;;;;2.1;1.8;;;;;;;;;;;;;
2019/11/17 05:23:05;;;;;;;3.2;2.1;;;;;;;;;;;;;
2019/11/17 05:28:02;;;;;;;2.5;2.2;;;;;;;;;;;;;
2019/11/17 05:30:27;;;;;;;2.5;2.1;;;;;;;;;;;;;
2019/11/17 05:32:56;;;;;;;3.5;2.5;;;;;;;;;;;;;
2019/11/17 05:35:17;;;;;;;3.5;3.1;;;;;;;;;;;;;
2019/11/17 05:37:45;;;;;;;4.4;3.4;;;;;;;;;;;;;
2019/11/17 05:40:13;;;;;;;3.5;3.2;;;;;;;;;;;;;
2019/11/17 05:42:37;;;;;;;4.2;3.5;;;;;;;;;;;;;
2019/11/17 05:45:02;;;;;;;4.7;3.9;;;;;;;;;;;;;
2019/11/17 05:47:28;;;;;;;6.4;4.2;;;;;;;;;;;;;
2019/11/17 05:49:58;;;;;;;5.1;4.4;;;;;;;;;;;;;
2019/11/17 05:52:29;;;;;;;5;4.5;;;;;;;;;;;;;
2019/11/17 05:55:00;;;;;;;5.3;4.8;;;;;;;;;;;;;
2019/11/17 05:57:27;;;;;;;5.8;5.2;;;;;;;;;;;;;
2019/11/17 05:59:47;;;;;;;7.4;6.4;;;;;;;;;;;;;
2019/11/17 06:04:40;;;;;;;7.2;5.9;;;;;;;;;;;;;
2019/11/17 06:07:04;;;;;;;7.6;6.5;;;;;;;;;;;;;
2019/11/17 06:09:29;;;;;;;8.2;7.3;;;;;;;;;;;;;
2019/11/17 06:16:47;;;;;;;5.6;5.1;;;;;;;;;;;;;
2019/11/17 06:19:12;;;;;;;6.8;6.1;;;;;;;;;;;;;
2019/11/17 06:21:41;;;;;;;8.3;7.4;;;;;;;;;;;;;
2019/11/17 06:24:08;;;;;;;7.4;6.7;;;;;;;;;;;;;
2019/11/17 06:26:36;;;;;;;6.4;5.8;;;;;;;;;;;;;
2019/11/17 06:29:00;;;;;;;5.6;5.1;;;;;;;;;;;;;
2019/11/17 06:31:25;;;;;;;5.8;5.2;;;;;;;;;;;;;
2019/11/17 06:33:49;;;;;;;4.7;4.3;;;;;;;;;;;;;
2019/11/17 06:36:19;;;;;;;4.6;4.2;;;;;;;;;;;;;
2019/11/17 06:38:44;;;;;;;4.4;4;;;;;;;;;;;;;
2019/11/17 06:41:16;;;;;;;4.7;4.3;;;;;;;;;;;;;
2019/11/17 06:43:44;;;;;;;5.2;4.7;;;;;;;;;;;;;
2019/11/17 06:46:13;;;;;;;4.8;4.1;;;;;;;;;;;;;
2019/11/17 06:51:18;;;;;;;8.5;7.5;;;;;;;;;;;;;
2019/11/17 06:53:47;;;;;;;7.4;6.5;;;;;;;;;;;;;
2019/11/17 06:56:11;;;;;;;7.2;6.5;;;;;;;;;;;;;
2019/11/17 06:58:35;;;;;;;7.2;6.5;;;;;;;;;;;;;
2019/11/17 07:01:06;;;;;;;9;8.1;;;;;;;;;;;;;
2019/11/17 07:04:10;;;;;;;10.1;9.1;;;;;;;;;;;;;
2019/11/17 07:06:22;;;;;;;10;9;;;;;;;;;;;;;
2019/11/17 07:08:49;;;;;;;9.8;8.6;;;;;;;;;;;;;
2019/11/17 07:11:22;;;;;;;10;9;;;;;;;;;;;;;
2019/11/17 07:13:43;;;;;;;8.1;7.4;;;;;;;;;;;;;
2019/11/17 07:16:09;;;;;;;8.9;8;;;;;;;;;;;;;
2019/11/17 07:18:37;;;;;;;8.8;8;;;;;;;;;;;;;
2019/11/17 07:21:02;;;;;;;7.5;6.8;;;;;;;;;;;;;
2019/11/17 07:23:26;;;;;;;7.5;6.8;;;;;;;;;;;;;
2019/11/17 07:25:53;;;;;;;6.9;6.2;;;;;;;;;;;;;
2019/11/17 07:28:20;;;;;;;5.8;5.2;;;;;;;;;;;;;
2019/11/17 07:30:51;;;;;;;6.5;5.9;;;;;;;;;;;;;
2019/11/17 07:33:16;;;;;;;6.5;5.8;;;;;;;;;;;;;
2019/11/17 07:35:43;;;;;;;6.7;6.1;;;;;;;;;;;;;
2019/11/17 07:38:07;;;;;;;7.3;6.6;;;;;;;;;;;;;
2019/11/17 07:40:32;;;;;;;7.5;6.5;;;;;;;;;;;;;
2019/11/17 07:42:57;;;;;;;8.5;7.1;;;;;;;;;;;;;
2019/11/17 07:45:24;;;;;;;9.6;8.7;;;;;;;;;;;;;
2019/11/17 07:47:47;;;;;;;11;9.2;;;;;;;;;;;;;
2019/11/17 07:50:14;;;;;;;14;12.6;;;;;;;;;;;;;
2019/11/17 07:52:38;;;;;;;20.3;16.8;;;;;;;;;;;;;
2019/11/17 07:55:05;;;;;;;12.1;10.9;;;;;;;;;;;;;
2019/11/17 07:57:31;;;;;;;10.6;9.6;;;;;;;;;;;;;
2019/11/17 08:00:11;;;;;;;9.5;8.5;;;;;;;;;;;;;
2019/11/17 08:02:30;;;;;;;8.5;7.7;;;;;;;;;;;;;
2019/11/17 08:05:23;;;;;;;7.8;7.1;;;;;;;;;;;;;
2019/11/17 08:07:20;;;;;;;7.8;7;;;;;;;;;;;;;
2019/11/17 08:09:46;;;;;;;7.8;7.1;;;;;;;;;;;;;
2019/11/17 08:12:11;;;;;;;11.4;9.7;;;;;;;;;;;;;
2019/11/17 08:14:37;;;;;;;9.7;8.7;;;;;;;;;;;;;
2019/11/17 08:17:01;;;;;;;10.7;9.6;;;;;;;;;;;;;
2019/11/17 08:19:26;;;;;;;11.3;10.1;;;;;;;;;;;;;
2019/11/17 08:21:51;;;;;;;10.3;9.3;;;;;;;;;;;;;
2019/11/17 08:24:17;;;;;;;9.7;8.2;;;;;;;;;;;;;
2019/11/17 08:26:50;;;;;;;9.4;8.5;;;;;;;;;;;;;
2019/11/17 08:29:14;;;;;;;8.3;7.5;;;;;;;;;;;;;
2019/11/17 08:31:40;;;;;;;7.6;6.9;;;;;;;;;;;;;
2019/11/17 08:34:04;;;;;;;8.7;7.2;;;;;;;;;;;;;
2019/11/17 08:36:35;;;;;;;8.6;7.7;;;;;;;;;;;;;
2019/11/17 08:39:01;;;;;;;9.9;8.9;;;;;;;;;;;;;
2019/11/17 08:41:22;;;;;;;6.9;6.2;;;;;;;;;;;;;
2019/11/17 08:43:48;;;;;;;8.1;7.3;;;;;;;;;;;;;
2019/11/17 08:46:15;;;;;;;10;9;;;;;;;;;;;;;
2019/11/17 08:48:40;;;;;;;12.1;10.9;;;;;;;;;;;;;
2019/11/17 08:51:15;;;;;;;11.5;10.4;;;;;;;;;;;;;
2019/11/17 08:53:41;;;;;;;10.9;9.8;;;;;;;;;;;;;
2019/11/17 08:56:10;;;;;;;12;10.5;;;;;;;;;;;;;
2019/11/17 08:58:32;;;;;;;11.4;10.2;;;;;;;;;;;;;
2019/11/17 09:00:57;;;;;;;10.5;9.3;;;;;;;;;;;;;
2019/11/17 09:03:22;;;;;;;10.7;9.7;;;;;;;;;;;;;
2019/11/17 09:05:48;;;;;;;13.4;12;;;;;;;;;;;;;
2019/11/17 09:08:14;;;;;;;13;11.6;;;;;;;;;;;;;
2019/11/17 09:10:38;;;;;;;11;9.9;;;;;;;;;;;;;
2019/11/17 09:13:07;;;;;;;12;10.8;;;;;;;;;;;;;
2019/11/17 09:15:30;;;;;;;14.6;13.2;;;;;;;;;;;;;
2019/11/17 09:18:04;;;;;;;11;9.9;;;;;;;;;;;;;
2019/11/17 09:20:19;;;;;;;12.7;11.3;;;;;;;;;;;;;
2019/11/17 09:23:00;;;;;;;13.2;11.9;;;;;;;;;;;;;
2019/11/17 09:25:12;;;;;;;11.2;10;;;;;;;;;;;;;
2019/11/17 09:27:38;;;;;;;9;8.1;;;;;;;;;;;;;
2019/11/17 09:30:08;;;;;;;8.4;7.6;;;;;;;;;;;;;
2019/11/17 09:32:32;;;;;;;9.1;7.6;;;;;;;;;;;;;
2019/11/17 09:34:55;;;;;;;7;6.3;;;;;;;;;;;;;
2019/11/17 09:37:19;;;;;;;5.6;4.9;;;;;;;;;;;;;
2019/11/17 09:39:46;;;;;;;4.2;3.8;;;;;;;;;;;;;
2019/11/17 09:42:13;;;;;;;4;3;;;;;;;;;;;;;
2019/11/17 09:44:38;;;;;;;4.2;3.5;;;;;;;;;;;;;
2019/11/17 09:47:09;;;;;;;3.8;3.5;;;;;;;;;;;;;
2019/11/17 09:49:33;;;;;;;5.6;5;;;;;;;;;;;;;
2019/11/17 09:52:03;;;;;;;8.6;7.7;;;;;;;;;;;;;
2019/11/17 09:54:24;;;;;;;8.6;7.5;;;;;;;;;;;;;
2019/11/17 09:56:49;;;;;;;8.5;6.7;;;;;;;;;;;;;
2019/11/17 09:59:13;;;;;;;10.7;8.7;;;;;;;;;;;;;
2019/11/17 10:01:38;;;;;;;14.4;9.9;;;;;;;;;;;;;
2019/11/17 10:04:09;;;;;;;14.8;10.5;;;;;;;;;;;;;
2019/11/17 10:07:13;;;;;;;9.4;7.6;;;;;;;;;;;;;
2019/11/17 10:09:31;;;;;;;5.9;4.9;;;;;;;;;;;;;
2019/11/17 10:11:56;;;;;;;6.2;4.9;;;;;;;;;;;;;
2019/11/17 10:14:21;;;;;;;6;5.3;;;;;;;;;;;;;
2019/11/17 10:16:50;;;;;;;10.6;7.2;;;;;;;;;;;;;
2019/11/17 10:19:13;;;;;;;10.5;8.4;;;;;;;;;;;;;
2019/11/17 10:21:36;;;;;;;10.6;8;;;;;;;;;;;;;
2019/11/17 10:24:03;;;;;;;6.7;5.3;;;;;;;;;;;;;
2019/11/17 10:26:32;;;;;;;7.6;6.3;;;;;;;;;;;;;
2019/11/17 10:28:53;;;;;;;6.9;5.9;;;;;;;;;;;;;
2019/11/17 10:31:20;;;;;;;4.4;4;;;;;;;;;;;;;
2019/11/17 10:33:44;;;;;;;3.9;3.5;;;;;;;;;;;;;
2019/11/17 10:36:17;;;;;;;3.5;2.9;;;;;;;;;;;;;
2019/11/17 10:38:48;;;;;;;2.6;2.4;;;;;;;;;;;;;
2019/11/17 10:41:10;;;;;;;2.2;1.9;;;;;;;;;;;;;
2019/11/17 10:43:36;;;;;;;8.2;5.6;;;;;;;;;;;;;
2019/11/17 10:46:00;;;;;;;5;3.2;;;;;;;;;;;;;
2019/11/17 10:48:28;;;;;;;7;6;;;;;;;;;;;;;
2019/11/17 10:51:00;;;;;;;10.3;8.9;;;;;;;;;;;;;
2019/11/17 10:53:22;;;;;;;15.1;11.8;;;;;;;;;;;;;
2019/11/17 10:55:48;;;;;;;20.4;16.7;;;;;;;;;;;;;
2019/11/17 10:58:09;;;;;;;16.9;13.2;;;;;;;;;;;;;
2019/11/17 11:00:34;;;;;;;12.5;9.5;;;;;;;;;;;;;
2019/11/17 11:03:01;;;;;;;9.2;7.2;;;;;;;;;;;;;
2019/11/17 11:05:27;;;;;;;7.2;6.5;;;;;;;;;;;;;
2019/11/17 11:07:53;;;;;;;4.8;4.3;;;;;;;;;;;;;
2019/11/17 11:10:15;;;;;;;7.6;6.8;;;;;;;;;;;;;
2019/11/17 11:12:44;;;;;;;7.4;6.4;;;;;;;;;;;;;
2019/11/17 11:15:06;;;;;;;9.7;7.1;;;;;;;;;;;;;
2019/11/17 11:17:30;;;;;;;9.6;8.1;;;;;;;;;;;;;
2019/11/17 11:19:57;;;;;;;9.1;7.8;;;;;;;;;;;;;
2019/11/17 11:22:28;;;;;;;8.7;7.6;;;;;;;;;;;;;
2019/11/17 11:24:47;;;;;;;9.5;7.9;;;;;;;;;;;;;
2019/11/17 11:27:12;;;;;;;10.5;8.9;;;;;;;;;;;;;
2019/11/17 11:29:38;;;;;;;8.4;7.1;;;;;;;;;;;;;
2019/11/17 11:32:07;;;;;;;8.8;6.9;;;;;;;;;;;;;
2019/11/17 11:34:28;;;;;;;9.8;7.2;;;;;;;;;;;;;
2019/11/17 11:36:53;;;;;;;9.6;8;;;;;;;;;;;;;
2019/11/17 11:39:18;;;;;;;10.4;7.9;;;;;;;;;;;;;
2019/11/17 11:41:45;;;;;;;7.2;5.7;;;;;;;;;;;;;
2019/11/17 11:44:08;;;;;;;12;10;;;;;;;;;;;;;
2019/11/17 11:46:36;;;;;;;6.6;5.5;;;;;;;;;;;;;
2019/11/17 11:49:05;;;;;;;6.8;5.8;;;;;;;;;;;;;
2019/11/17 11:51:28;;;;;;;9.8;7.2;;;;;;;;;;;;;
2019/11/17 11:53:51;;;;;;;11.6;8.4;;;;;;;;;;;;;
2019/11/17 11:56:16;;;;;;;8.8;5.8;;;;;;;;;;;;;
2019/11/17 11:58:41;;;;;;;4.9;4.3;;;;;;;;;;;;;
2019/11/17 12:01:08;;;;;;;6.1;4.6;;;;;;;;;;;;;
2019/11/17 12:03:32;;;;;;;4.6;4.1;;;;;;;;;;;;;
2019/11/17 12:05:59;;;;;;;6.9;4.9;;;;;;;;;;;;;
2019/11/17 12:08:30;;;;;;;9.1;6.5;;;;;;;;;;;;;
2019/11/17 12:10:49;;;;;;;9.8;7.3;;;;;;;;;;;;;
2019/11/17 12:13:14;;;;;;;9.4;6.7;;;;;;;;;;;;;
2019/11/17 12:15:39;;;;;;;19.1;15;;;;;;;;;;;;;
2019/11/17 12:18:13;;;;;;;15;13.3;;;;;;;;;;;;;
2019/11/17 12:20:46;;;;;;;8.7;7.2;;;;;;;;;;;;;
2019/11/17 12:23:13;;;;;;;18.7;14.8;;;;;;;;;;;;;
2019/11/17 12:25:37;;;;;;;7.8;6.5;;;;;;;;;;;;;
2019/11/17 12:28:01;;;;;;;10;8.8;;;;;;;;;;;;;
2019/11/17 12:30:26;;;;;;;7.4;6.3;;;;;;;;;;;;;
2019/11/17 12:32:53;;;;;;;7.9;6.8;;;;;;;;;;;;;
2019/11/17 12:35:16;;;;;;;7.8;6.7;;;;;;;;;;;;;
2019/11/17 12:37:42;;;;;;;19.1;17.2;;;;;;;;;;;;;
2019/11/17 12:40:14;;;;;;;18.3;16.6;;;;;;;;;;;;;
2019/11/17 12:42:40;;;;;;;5.8;4.2;;;;;;;;;;;;;
2019/11/17 12:45:03;;;;;;;7.6;6.9;;;;;;;;;;;;;
2019/11/17 12:47:34;;;;;;;9.9;8.9;;;;;;;;;;;;;
2019/11/17 12:49:54;;;;;;;14.9;13.4;;;;;;;;;;;;;
2019/11/17 12:52:25;;;;;;;8.2;6.2;;;;;;;;;;;;;
2019/11/17 12:54:44;;;;;;;6.9;5.3;;;;;;;;;;;;;
2019/11/17 12:57:10;;;;;;;7.4;6.2;;;;;;;;;;;;;
2019/11/17 12:59:38;;;;;;;12.3;9.7;;;;;;;;;;;;;
2019/11/17 13:02:00;;;;;;;10.5;8;;;;;;;;;;;;;
2019/11/17 13:04:25;;;;;;;13.5;10.9;;;;;;;;;;;;;
2019/11/17 13:06:51;;;;;;;5.7;4.1;;;;;;;;;;;;;
2019/11/17 13:09:17;;;;;;;5.1;3.5;;;;;;;;;;;;;
2019/11/17 13:14:34;;;;;;;16.9;12.5;;;;;;;;;;;;;
2019/11/17 13:17:00;;;;;;;6.7;4.7;;;;;;;;;;;;;
2019/11/17 13:19:29;;;;;;;9.9;8.2;;;;;;;;;;;;;
2019/11/17 13:21:50;;;;;;;6.9;5.3;;;;;;;;;;;;;
2019/11/17 13:24:15;;;;;;;15.7;12.4;;;;;;;;;;;;;
2019/11/17 13:26:40;;;;;;;10.9;8.1;;;;;;;;;;;;;
2019/11/17 13:29:12;;;;;;;57.6;43.6;;;;;;;;;;;;;
2019/11/17 13:32:13;;;;;;;15.4;11.6;;;;;;;;;;;;;
2019/11/17 13:34:29;;;;;;;9.7;7.7;;;;;;;;;;;;;
2019/11/17 13:36:48;;;;;;;14.5;11;;;;;;;;;;;;;
2019/11/17 13:39:14;;;;;;;16;11.9;;;;;;;;;;;;;
2019/11/17 13:41:43;;;;;;;8.8;5.8;;;;;;;;;;;;;
2019/11/17 13:44:10;;;;;;;15.2;10.6;;;;;;;;;;;;;
2019/11/17 13:46:33;;;;;;;14.1;9.4;;;;;;;;;;;;;
2019/11/17 13:49:04;;;;;;;14.1;7.9;;;;;;;;;;;;;
2019/11/17 13:51:28;;;;;;;11.6;7.5;;;;;;;;;;;;;
2019/11/17 13:53:52;;;;;;;13.6;9.4;;;;;;;;;;;;;
2019/11/17 13:56:22;;;;;;;12;8.2;;;;;;;;;;;;;
2019/11/17 13:58:44;;;;;;;16.8;10.6;;;;;;;;;;;;;
2019/11/17 14:01:16;;;;;;;16.9;11.6;;;;;;;;;;;;;
2019/11/17 14:03:40;;;;;;;13;9.5;;;;;;;;;;;;;
2019/11/17 14:06:03;;;;;;;11;7.9;;;;;;;;;;;;;
2019/11/17 14:08:33;;;;;;;13.9;9.9;;;;;;;;;;;;;
2019/11/17 14:10:53;;;;;;;8.3;6.1;;;;;;;;;;;;;
2019/11/17 14:13:27;;;;;;;13.8;10.4;;;;;;;;;;;;;
2019/11/17 14:15:46;;;;;;;13.4;9.3;;;;;;;;;;;;;
2019/11/17 14:18:09;;;;;;;127.8;97.1;;;;;;;;;;;;;
2019/11/17 14:20:41;;;;;;;7.8;5.7;;;;;;;;;;;;;
2019/11/17 14:23:06;;;;;;;7;5.4;;;;;;;;;;;;;
2019/11/17 14:25:36;;;;;;;56.4;38.6;;;;;;;;;;;;;
2019/11/17 14:28:01;;;;;;;4.6;2.8;;;;;;;;;;;;;
2019/11/17 14:30:30;;;;;;;45.4;31.4;;;;;;;;;;;;;
2019/11/17 14:33:14;;;;;;;54.1;39.7;;;;;;;;;;;;;
2019/11/17 14:35:28;;;;;;;69.9;51;;;;;;;;;;;;;
2019/11/17 14:37:49;;;;;;;15.8;14.2;;;;;;;;;;;;;
2019/11/17 14:40:12;;;;;;;14.2;12.7;;;;;;;;;;;;;
2019/11/17 14:42:37;;;;;;;8.9;7.5;;;;;;;;;;;;;
2019/11/17 14:45:06;;;;;;;9.6;7.3;;;;;;;;;;;;;
2019/11/17 14:47:31;;;;;;;10;7.7;;;;;;;;;;;;;
2019/11/17 14:49:56;;;;;;;10.2;7;;;;;;;;;;;;;
2019/11/17 14:52:26;;;;;;;9.3;7.1;;;;;;;;;;;;;
2019/11/17 14:54:55;;;;;;;7;5.4;;;;;;;;;;;;;
2019/11/17 14:57:21;;;;;;;9.4;6.5;;;;;;;;;;;;;
2019/11/17 14:59:43;;;;;;;8.3;6.2;;;;;;;;;;;;;
2019/11/17 15:02:09;;;;;;;7.5;4.3;;;;;;;;;;;;;
2019/11/17 15:04:43;;;;;;;8.4;5.2;;;;;;;;;;;;;
2019/11/17 15:07:06;;;;;;;7;5.5;;;;;;;;;;;;;
2019/11/17 15:09:34;;;;;;;8.3;6.8;;;;;;;;;;;;;
2019/11/17 15:11:56;;;;;;;8.4;6.9;;;;;;;;;;;;;
2019/11/17 15:14:22;;;;;;;10.7;6.9;;;;;;;;;;;;;
2019/11/17 15:16:46;;;;;;;17.2;9.3;;;;;;;;;;;;;
2019/11/17 15:19:14;;;;;;;10.5;6.1;;;;;;;;;;;;;
2019/11/17 15:21:36;;;;;;;13.6;9.5;;;;;;;;;;;;;
2019/11/17 15:24:04;;;;;;;6.8;4.9;;;;;;;;;;;;;
2019/11/17 15:26:31;;;;;;;6.1;4.1;;;;;;;;;;;;;
2019/11/17 15:28:56;;;;;;;4.8;3.3;;;;;;;;;;;;;
2019/11/17 15:31:19;;;;;;;4.7;3.4;;;;;;;;;;;;;
2019/11/17 15:33:45;;;;;;;5.1;4.2;;;;;;;;;;;;;
2019/11/17 15:36:12;;;;;;;7;5.5;;;;;;;;;;;;;
2019/11/17 15:38:36;;;;;;;5;3.4;;;;;;;;;;;;;
2019/11/17 15:41:52;;;;;;;5.5;3.7;;;;;;;;;;;;;
2019/11/17 15:44:20;;;;;;;4.4;3.4;;;;;;;;;;;;;
2019/11/17 15:46:43;;;;;;;3.7;2.4;;;;;;;;;;;;;
2019/11/17 15:49:07;;;;;;;3.2;2.1;;;;;;;;;;;;;
2019/11/17 15:51:33;;;;;;;3.7;2.1;;;;;;;;;;;;;
2019/11/17 15:53:58;;;;;;;3.3;2.4;;;;;;;;;;;;;
2019/11/17 15:56:28;;;;;;;5.3;3.2;;;;;;;;;;;;;
2019/11/17 15:58:53;;;;;;;6.7;3.3;;;;;;;;;;;;;
2019/11/17 16:01:40;;;;;;;4.4;3.2;;;;;;;;;;;;;
2019/11/17 16:03:47;;;;;;;5.4;3.2;;;;;;;;;;;;;
2019/11/17 16:06:19;;;;;;;6.4;3;;;;;;;;;;;;;
2019/11/17 16:08:44;;;;;;;50;30.2;;;;;;;;;;;;;
2019/11/17 16:11:10;;;;;;;13;8;;;;;;;;;;;;;
2019/11/17 16:13:34;;;;;;;8.2;6.2;;;;;;;;;;;;;
2019/11/17 16:15:59;;;;;;;7.6;6.1;;;;;;;;;;;;;
2019/11/17 16:18:24;;;;;;;14.5;13;;;;;;;;;;;;;
2019/11/17 16:23:15;;;;;;;10;7.7;;;;;;;;;;;;;
2019/11/17 16:25:41;;;;;;;10.3;8.2;;;;;;;;;;;;;
2019/11/17 16:28:08;;;;;;;10.4;8.5;;;;;;;;;;;;;
2019/11/17 16:30:34;;;;;;;19.1;17.1;;;;;;;;;;;;;
2019/11/17 16:33:00;;;;;;;12.3;10.7;;;;;;;;;;;;;
2019/11/17 16:35:24;;;;;;;14;12.5;;;;;;;;;;;;;
2019/11/17 16:37:53;;;;;;;15.4;12.9;;;;;;;;;;;;;
2019/11/17 16:40:17;;;;;;;19.3;15.6;;;;;;;;;;;;;
2019/11/17 16:42:47;;;;;;;15.9;12.6;;;;;;;;;;;;;
2019/11/17 16:45:12;;;;;;;17.4;15.7;;;;;;;;;;;;;
2019/11/17 16:47:38;;;;;;;27.1;24.3;;;;;;;;;;;;;
2019/11/17 16:50:15;;;;;;;27.1;24.3;;;;;;;;;;;;;
2019/11/17 16:53:15;;;;;;;39.4;27.2;;;;;;;;;;;;;
2019/11/17 16:55:29;;;;;;;29.8;24.6;;;;;;;;;;;;;
2019/11/17 16:57:52;;;;;;;27.6;22.2;;;;;;;;;;;;;
2019/11/17 17:00:22;;;;;;;25.8;19.6;;;;;;;;;;;;;
2019/11/17 17:02:47;;;;;;;23.7;18.7;;;;;;;;;;;;;
2019/11/17 17:05:10;;;;;;;22.6;18;;;;;;;;;;;;;
2019/11/17 17:07:36;;;;;;;24.5;19.8;;;;;;;;;;;;;
2019/11/17 17:10:00;;;;;;;40.6;28;;;;;;;;;;;;;
2019/11/17 17:12:28;;;;;;;32.3;24.4;;;;;;;;;;;;;
2019/11/17 17:14:56;;;;;;;28.2;22.4;;;;;;;;;;;;;
2019/11/17 17:17:25;;;;;;;28.7;23.8;;;;;;;;;;;;;
2019/11/17 17:19:47;;;;;;;40.4;31.5;;;;;;;;;;;;;
2019/11/17 17:24:38;;;;;;;33.7;26.8;;;;;;;;;;;;;
2019/11/17 17:27:04;;;;;;;22.1;17.9;;;;;;;;;;;;;
2019/11/17 17:29:29;;;;;;;17.9;13.9;;;;;;;;;;;;;
2019/11/17 17:31:53;;;;;;;18.9;15.1;;;;;;;;;;;;;
2019/11/17 17:34:20;;;;;;;19.9;15.7;;;;;;;;;;;;;
2019/11/17 17:36:42;;;;;;;21.1;16.7;;;;;;;;;;;;;
2019/11/17 17:39:07;;;;;;;16.5;14.2;;;;;;;;;;;;;
2019/11/17 17:41:39;;;;;;;15.2;13.2;;;;;;;;;;;;;
2019/11/17 17:43:58;;;;;;;15.4;13.3;;;;;;;;;;;;;
2019/11/17 17:46:25;;;;;;;15.4;13.3;;;;;;;;;;;;;
2019/11/17 17:48:51;;;;;;;21.2;18;;;;;;;;;;;;;
2019/11/17 17:51:16;;;;;;;22.2;19.1;;;;;;;;;;;;;
2019/11/17 17:53:41;;;;;;;23.9;19.7;;;;;;;;;;;;;
2019/11/17 17:56:06;;;;;;;20.7;17.7;;;;;;;;;;;;;
2019/11/17 17:58:37;;;;;;;21.3;18.7;;;;;;;;;;;;;
2019/11/17 18:00:58;;;;;;;18.7;16.7;;;;;;;;;;;;;
2019/11/17 18:03:21;;;;;;;18;14.1;;;;;;;;;;;;;
2019/11/17 18:05:48;;;;;;;13.4;12;;;;;;;;;;;;;
2019/11/17 18:08:15;;;;;;;11.7;10.5;;;;;;;;;;;;;
2019/11/17 18:10:48;;;;;;;13.8;10.6;;;;;;;;;;;;;
2019/11/17 18:13:13;;;;;;;12.3;10.5;;;;;;;;;;;;;
2019/11/17 18:15:38;;;;;;;14.2;11.5;;;;;;;;;;;;;
2019/11/17 18:18:05;;;;;;;22.4;15.5;;;;;;;;;;;;;
2019/11/17 18:20:28;;;;;;;21.8;15.4;;;;;;;;;;;;;
2019/11/17 18:22:55;;;;;;;36.5;21.9;;;;;;;;;;;;;
2019/11/17 18:25:21;;;;;;;41.2;26.9;;;;;;;;;;;;;
2019/11/17 18:27:46;;;;;;;40.2;25.6;;;;;;;;;;;;;
2019/11/17 18:30:13;;;;;;;36.5;21.7;;;;;;;;;;;;;
2019/11/17 18:35:04;;;;;;;44.4;25.4;;;;;;;;;;;;;
2019/11/17 18:37:35;;;;;;;46.2;25;;;;;;;;;;;;;
2019/11/17 18:39:53;;;;;;;47.4;25.7;;;;;;;;;;;;;
2019/11/17 18:42:20;;;;;;;45.1;25.7;;;;;;;;;;;;;
2019/11/17 18:44:46;;;;;;;47.4;25.8;;;;;;;;;;;;;
2019/11/17 18:47:10;;;;;;;44.6;25.4;;;;;;;;;;;;;
2019/11/17 18:49:35;;;;;;;45.6;25.4;;;;;;;;;;;;;
2019/11/17 18:52:02;;;;;;;47.6;24.2;;;;;;;;;;;;;
2019/11/17 18:54:26;;;;;;;44.6;24.5;;;;;;;;;;;;;
2019/11/17 18:56:53;;;;;;;41.8;23.4;;;;;;;;;;;;;
2019/11/17 18:59:19;;;;;;;38.9;22.7;;;;;;;;;;;;;
2019/11/17 19:01:45;;;;;;;38.8;22.3;;;;;;;;;;;;;
2019/11/17 19:04:10;;;;;;;36.8;22;;;;;;;;;;;;;
2019/11/17 19:06:33;;;;;;;37.7;23;;;;;;;;;;;;;
2019/11/17 19:09:02;;;;;;;49.2;27.6;;;;;;;;;;;;;
2019/11/17 19:11:31;;;;;;;42.1;24.5;;;;;;;;;;;;;
2019/11/17 19:13:51;;;;;;;42.5;24.2;;;;;;;;;;;;;
2019/11/17 19:16:15;;;;;;;38.6;21.9;;;;;;;;;;;;;
2019/11/17 19:18:41;;;;;;;35.7;21.4;;;;;;;;;;;;;
2019/11/17 19:21:08;;;;;;;36.1;21.6;;;;;;;;;;;;;
2019/11/17 19:23:32;;;;;;;36.2;21.7;;;;;;;;;;;;;
2019/11/17 19:25:58;;;;;;;31.9;20.7;;;;;;;;;;;;;
2019/11/17 19:28:25;;;;;;;32;20.4;;;;;;;;;;;;;
2019/11/17 19:30:47;;;;;;;33.1;20.3;;;;;;;;;;;;;
2019/11/17 19:33:18;;;;;;;34.7;20.8;;;;;;;;;;;;;
2019/11/17 19:36:19;;;;;;;32.5;20.9;;;;;;;;;;;;;
2019/11/17 19:38:27;;;;;;;29.9;19;;;;;;;;;;;;;
2019/11/17 19:43:25;;;;;;;30;19.2;;;;;;;;;;;;;
2019/11/17 19:45:44;;;;;;;29;18.7;;;;;;;;;;;;;
2019/11/17 19:48:10;;;;;;;26.4;17.3;;;;;;;;;;;;;
2019/11/17 19:50:37;;;;;;;26.7;16.8;;;;;;;;;;;;;
2019/11/17 19:53:03;;;;;;;25.1;16.5;;;;;;;;;;;;;
2019/11/17 19:55:27;;;;;;;25.8;16.1;;;;;;;;;;;;;
2019/11/17 19:58:01;;;;;;;24.8;16;;;;;;;;;;;;;
2019/11/17 20:00:20;;;;;;;24.7;16.3;;;;;;;;;;;;;
2019/11/17 20:02:50;;;;;;;25.6;16.5;;;;;;;;;;;;;
2019/11/17 20:05:16;;;;;;;26.2;17.5;;;;;;;;;;;;;
2019/11/17 20:07:41;;;;;;;23.7;15.8;;;;;;;;;;;;;
2019/11/17 20:10:10;;;;;;;22.8;15.5;;;;;;;;;;;;;
2019/11/17 20:12:36;;;;;;;23.6;15.2;;;;;;;;;;;;;
2019/11/17 20:15:16;;;;;;;20.9;14.4;;;;;;;;;;;;;
2019/11/17 20:17:27;;;;;;;21.5;14.3;;;;;;;;;;;;;
2019/11/17 20:19:52;;;;;;;21.1;14.8;;;;;;;;;;;;;
2019/11/17 20:22:19;;;;;;;21;14.3;;;;;;;;;;;;;
2019/11/17 20:24:42;;;;;;;19.6;13.3;;;;;;;;;;;;;
2019/11/17 20:27:17;;;;;;;19.9;13.4;;;;;;;;;;;;;
2019/11/17 20:29:42;;;;;;;18;12.8;;;;;;;;;;;;;
2019/11/17 20:32:05;;;;;;;19.6;13.4;;;;;;;;;;;;;
2019/11/17 20:34:34;;;;;;;20.1;12.9;;;;;;;;;;;;;
2019/11/17 20:36:56;;;;;;;19.7;13.3;;;;;;;;;;;;;
2019/11/17 20:39:23;;;;;;;18;12.8;;;;;;;;;;;;;
2019/11/17 20:41:49;;;;;;;18.4;12.9;;;;;;;;;;;;;
2019/11/17 20:44:13;;;;;;;22.4;14.6;;;;;;;;;;;;;
2019/11/17 20:46:39;;;;;;;21.8;15.2;;;;;;;;;;;;;
2019/11/17 20:49:06;;;;;;;23;15.2;;;;;;;;;;;;;